Portada
METAR-TAF:

METAR-TAF

Aeropuertos :

Aeropuerto de Murcia-San Javier

Murcia, España

latitud: 37-47N, longitud: 000-48W, altitud: 5 m

Observación

El informe se hizo hace 34 minutos, a las 01:30 UTC
Viento 6 kt del norte, variando entre noroeste y norte-noreste
Temperatura 12°C
Humedad 100%
Presión 1021 hPa
Visibilidad: 8000 m
Cielo nuboso a una altura de 1400 ft
Cielo nuboso a una altura de 2000 ft

METAR: LELC 240130Z AUTO 35006KT 320V020 8000 BKN014 BKN020 12/12 Q1021

Hora: 03:04 (02:04 UTC)

Pronóstico

El informe se hizo hace 3 horas y 4 minutos, a las 23:00 UTC
Pronóstico válido del 24 a las 00 UTC al 24 a las 24 UTC
Viento 5 kt del noreste
Visibilidad 10 km o más
Escasas nubes a una altura de 2000 ft
Probabilidad 40% :
Temporalmente
del 24 a las 00 UTC al 24 a las 09 UTC
Visibilidad: 3000 m
Cielo nuboso a una altura de 1200 ft
neblina

TAF: LELC 232300Z 2400/2424 05005KT 9999 FEW020 TX17/2413Z TN09/2406Z PROB40 TEMPO 2400/2409 3000 BR BKN012

Observaciones y pronósticos meteorológicos de más de 4000 aeropuertos (mensajes METAR y TAF).

Los puntos amarillos y rojos representan las estaciones disponibles.

Ponga el ratón en el punto deseado para ver el nombre de la estación.

Haga clic para ver las observaciones y los pronósticos meteorológicos.

Para cambiar el mapa : haga clic en los botones verdes con una cruz de color negro para hacer un zoom, en el botón verde con un guión para alejar o en las flechas verdes para mapas adyacentes.


METAR-TAF: